createdAt,value
2022-12-25T00:01:37.443Z,9.43
2022-12-25T00:06:41.949Z,9.18
2022-12-25T00:11:46.391Z,10.63
2022-12-25T00:16:51.352Z,10.20
2022-12-25T00:21:54.854Z,10.07
2022-12-25T00:26:58.576Z,8.98
2022-12-25T00:32:03.290Z,7.72
2022-12-25T00:37:06.948Z,8.93
2022-12-25T00:42:20.282Z,8.70
2022-12-25T00:52:29.018Z,8.93
2022-12-25T00:57:32.594Z,8.90
2022-12-25T01:02:37.393Z,9.93
2022-12-25T01:07:40.971Z,12.18
2022-12-25T01:12:45.263Z,10.75
2022-12-25T01:17:50.069Z,8.15
2022-12-25T01:22:54.057Z,10.57
2022-12-25T01:27:57.492Z,9.82
2022-12-25T01:33:02.253Z,10.45
2022-12-25T01:38:05.679Z,9.82
2022-12-25T01:43:23.168Z,7.82
2022-12-25T01:48:31.685Z,8.32
2022-12-25T01:53:35.715Z,6.82
2022-12-25T01:58:39.388Z,9.82
2022-12-25T02:03:44.409Z,10.15
2022-12-25T02:08:47.790Z,10.45
2022-12-25T02:13:51.482Z,9.55
2022-12-25T02:19:01.998Z,8.75
2022-12-25T02:24:27.824Z,7.75
2022-12-25T02:29:40.348Z,8.52
2022-12-25T02:34:48.867Z,11.57
2022-12-25T02:40:00.021Z,8.73
2022-12-25T02:45:23.048Z,12.82
2022-12-25T02:50:44.725Z,9.45
2022-12-25T02:56:08.202Z,9.02
2022-12-25T03:01:34.272Z,12.73
2022-12-25T03:06:46.676Z,9.88
2022-12-25T03:11:57.887Z,12.97
2022-12-25T03:17:02.706Z,10.15
2022-12-25T03:22:25.499Z,12.25
2022-12-25T03:27:34.402Z,8.25
2022-12-25T03:32:46.142Z,11.45
2022-12-25T03:38:14.410Z,10.48
2022-12-25T03:43:48.879Z,13.13
2022-12-25T03:49:18.357Z,9.45
2022-12-25T03:54:44.312Z,9.80
2022-12-25T04:00:05.909Z,10.02
2022-12-25T04:05:27.959Z,9.38
2022-12-25T04:10:49.030Z,11.50
2022-12-25T04:16:10.025Z,11.32
2022-12-25T04:21:33.276Z,10.48
2022-12-25T04:26:54.255Z,18.33
2022-12-25T04:32:15.189Z,16.02
2022-12-25T04:37:20.040Z,10.55
2022-12-25T04:42:23.435Z,13.82
2022-12-25T04:47:27.878Z,10.40
2022-12-25T04:52:37.192Z,17.23
2022-12-25T04:57:41.139Z,15.70
2022-12-25T05:02:45.248Z,12.57
2022-12-25T05:07:50.545Z,19.23
2022-12-25T05:12:53.933Z,15.75
2022-12-25T05:17:57.280Z,12.73
2022-12-25T05:23:02.381Z,14.60
2022-12-25T05:28:06.065Z,16.80
2022-12-25T05:33:09.524Z,17.40
2022-12-25T05:38:14.502Z,15.95
2022-12-25T05:43:19.434Z,15.75
2022-12-25T05:48:23.155Z,17.15
2022-12-25T05:53:27.858Z,18.92
2022-12-25T05:58:31.791Z,17.95
2022-12-25T06:03:35.617Z,18.48
2022-12-25T06:08:40.772Z,18.52
2022-12-25T06:13:44.462Z,16.52
2022-12-25T06:18:52.912Z,20.27
2022-12-25T06:23:57.682Z,16.90
2022-12-25T06:29:02.123Z,16.52
2022-12-25T06:34:05.778Z,14.02
2022-12-25T06:39:11.197Z,14.32
2022-12-25T06:44:14.917Z,14.60
2022-12-25T06:49:19.514Z,15.18
2022-12-25T06:54:24.284Z,16.48
2022-12-25T06:59:27.989Z,17.10
2022-12-25T07:04:35.911Z,19.17
2022-12-25T07:09:42.433Z,14.40
2022-12-25T07:14:48.812Z,16.48
2022-12-25T07:19:52.536Z,18.20
2022-12-25T07:24:57.397Z,16.05
2022-12-25T07:30:00.799Z,14.00
2022-12-25T07:35:04.264Z,35.13
2022-12-25T07:40:10.882Z,39.58
2022-12-25T07:45:14.248Z,24.42
2022-12-25T07:50:20.145Z,21.92
2022-12-25T07:55:25.118Z,14.30
2022-12-25T08:00:32.685Z,14.45
2022-12-25T08:05:37.152Z,13.60
2022-12-25T08:10:46.420Z,13.05
2022-12-25T08:15:50.260Z,12.40
2022-12-25T08:20:53.926Z,18.55
2022-12-25T08:26:05.434Z,15.57
2022-12-25T08:31:11.933Z,19.90
2022-12-25T08:36:15.675Z,20.20
2022-12-25T08:41:20.572Z,18.13
2022-12-25T08:46:24.031Z,19.30
2022-12-25T08:51:27.823Z,18.67
2022-12-25T08:56:32.845Z,18.75
2022-12-25T09:01:36.553Z,15.00
2022-12-25T09:06:40.558Z,18.05
2022-12-25T09:11:45.331Z,20.60
2022-12-25T09:16:51.034Z,20.00
2022-12-25T09:21:54.457Z,19.83
2022-12-25T09:26:59.181Z,21.85
2022-12-25T09:32:02.552Z,18.13
2022-12-25T09:37:05.913Z,14.20
2022-12-25T09:42:16.130Z,16.65
2022-12-25T09:47:23.061Z,18.92
2022-12-25T09:52:31.506Z,16.92
2022-12-25T09:57:36.529Z,18.60
2022-12-25T10:03:03.218Z,14.70
2022-12-25T10:08:13.419Z,14.70
2022-12-25T10:13:32.476Z,12.20
2022-12-25T10:18:48.515Z,20.23
2022-12-25T10:23:59.704Z,15.40
2022-12-25T10:29:12.649Z,22.63
2022-12-25T10:34:17.126Z,20.27
2022-12-25T10:39:22.200Z,14.40
2022-12-25T10:44:27.024Z,18.08
2022-12-25T10:49:32.930Z,17.33
2022-12-25T10:54:37.212Z,16.05
2022-12-25T10:59:46.948Z,17.60
2022-12-25T11:04:51.224Z,19.52
2022-12-25T11:10:02.654Z,14.13
2022-12-25T11:15:38.855Z,9.80
2022-12-25T11:20:50.212Z,15.30
2022-12-25T11:25:57.947Z,17.38
2022-12-25T11:31:14.332Z,15.18
2022-12-25T11:36:22.681Z,15.60
2022-12-25T11:41:33.672Z,14.25
2022-12-25T11:46:43.461Z,19.90
2022-12-25T11:51:50.311Z,13.18
2022-12-25T11:56:53.913Z,17.40
2022-12-25T12:02:03.035Z,18.25
2022-12-25T12:07:15.380Z,13.35
2022-12-25T12:12:23.812Z,15.73
2022-12-25T12:17:28.675Z,13.93
2022-12-25T12:22:32.113Z,12.98
2022-12-25T12:27:38.746Z,18.95
2022-12-25T12:32:46.113Z,12.77
2022-12-25T12:37:54.563Z,13.68
2022-12-25T12:42:58.117Z,15.60
2022-12-25T12:48:03.219Z,10.73
2022-12-25T12:53:28.890Z,12.30
2022-12-25T12:58:34.164Z,15.68
2022-12-25T13:04:18.099Z,18.10
2022-12-25T13:09:33.388Z,12.48
2022-12-25T13:14:38.393Z,12.13
2022-12-25T13:19:44.270Z,12.40
2022-12-25T13:24:57.524Z,11.20
2022-12-25T13:35:06.411Z,15.35
2022-12-25T13:40:21.864Z,15.77
2022-12-25T13:45:27.371Z,18.52
2022-12-25T13:50:34.418Z,26.55
2022-12-25T13:55:38.133Z,18.90
2022-12-25T14:00:48.195Z,26.42
2022-12-25T14:05:59.250Z,21.58
2022-12-25T14:11:05.748Z,18.00
2022-12-25T14:16:10.725Z,16.08
2022-12-25T14:21:23.461Z,20.33
2022-12-25T14:26:29.482Z,18.98
2022-12-25T14:31:33.808Z,15.50
2022-12-25T14:36:39.278Z,16.23
2022-12-25T14:41:42.677Z,23.25
2022-12-25T14:46:46.119Z,18.50
2022-12-25T14:51:51.483Z,21.17
2022-12-25T14:56:56.385Z,19.45
2022-12-25T15:02:01.160Z,22.80
2022-12-25T15:07:09.689Z,21.20
2022-12-25T15:12:13.895Z,25.50
2022-12-25T15:17:26.278Z,35.45
2022-12-25T15:22:54.083Z,33.55
2022-12-25T15:27:54.755Z,23.48
2022-12-25T15:32:58.200Z,28.15
2022-12-25T15:38:03.194Z,24.35
2022-12-25T15:43:14.366Z,27.65
2022-12-25T15:48:25.906Z,32.03
2022-12-25T15:53:30.674Z,28.80
2022-12-25T15:58:34.127Z,29.63
2022-12-25T16:03:37.505Z,32.85
2022-12-25T16:08:43.056Z,38.20
2022-12-25T16:13:46.472Z,36.78
2022-12-25T16:18:50.697Z,27.38
2022-12-25T16:23:55.416Z,31.70
2022-12-25T16:29:03.591Z,26.40
2022-12-25T16:34:10.542Z,31.52
2022-12-25T16:39:15.284Z,35.67
2022-12-25T16:44:18.726Z,36.80
2022-12-25T16:49:22.140Z,35.03
2022-12-25T16:54:26.988Z,38.38
2022-12-25T16:59:31.176Z,39.17
2022-12-25T17:04:34.555Z,36.03
2022-12-25T17:09:44.065Z,46.53
2022-12-25T17:14:49.329Z,38.47
2022-12-25T17:19:52.954Z,27.58
2022-12-25T17:24:57.776Z,31.88
2022-12-25T17:30:01.202Z,32.28
2022-12-25T17:35:04.959Z,35.53
2022-12-25T17:40:11.498Z,39.38
2022-12-25T17:45:15.009Z,35.92
2022-12-25T17:50:19.039Z,31.23
2022-12-25T17:55:23.838Z,38.08
2022-12-25T18:00:27.243Z,39.15
2022-12-25T18:05:30.654Z,35.97
2022-12-25T18:10:38.696Z,38.30
2022-12-25T18:15:42.649Z,38.75
2022-12-25T18:20:46.023Z,36.53
2022-12-25T18:25:51.546Z,44.92
2022-12-25T18:30:54.916Z,36.58
2022-12-25T18:35:59.926Z,40.45
2022-12-25T18:41:08.088Z,32.97
2022-12-25T18:46:11.819Z,41.95
2022-12-25T18:51:15.694Z,41.38
2022-12-25T18:56:20.939Z,34.45
2022-12-25T19:01:26.305Z,35.55
2022-12-25T19:06:33.188Z,32.70
2022-12-25T19:11:44.008Z,35.65
2022-12-25T19:16:50.399Z,35.25
2022-12-25T19:21:54.148Z,34.95
2022-12-25T19:26:58.872Z,32.55
2022-12-25T19:32:02.320Z,34.78
2022-12-25T19:37:05.992Z,30.73
2022-12-25T19:42:10.731Z,37.25
2022-12-25T19:47:14.173Z,35.47
2022-12-25T19:52:17.581Z,32.35
2022-12-25T19:57:22.340Z,31.30
2022-12-25T20:02:25.886Z,30.83
2022-12-25T20:07:29.400Z,32.13
2022-12-25T20:12:34.161Z,30.27
2022-12-25T20:17:37.555Z,31.98
2022-12-25T20:22:41.434Z,33.15
2022-12-25T20:27:46.361Z,34.20
2022-12-25T20:32:50.726Z,33.83
2022-12-25T20:37:54.628Z,30.15
2022-12-25T20:42:59.375Z,29.15
2022-12-25T20:48:05.118Z,25.38
2022-12-25T20:53:08.521Z,28.83
2022-12-25T20:58:13.780Z,31.92
2022-12-25T21:03:17.633Z,26.88
2022-12-25T21:08:26.080Z,30.40
2022-12-25T21:13:32.625Z,26.27
2022-12-25T21:18:36.263Z,30.08
2022-12-25T21:23:41.459Z,25.88
2022-12-25T21:28:46.391Z,21.98
2022-12-25T21:33:52.928Z,21.80
2022-12-25T21:38:58.361Z,18.00
2022-12-25T21:44:03.575Z,23.27
2022-12-25T21:49:07.071Z,20.13
2022-12-25T21:54:11.259Z,21.08
2022-12-25T21:59:17.957Z,21.00
2022-12-25T22:04:23.027Z,23.55
2022-12-25T22:09:27.507Z,18.77
2022-12-25T22:14:56.251Z,23.83
2022-12-25T22:20:01.107Z,22.10
2022-12-25T22:25:06.546Z,22.20
2022-12-25T22:30:14.219Z,23.02
2022-12-25T22:35:18.117Z,31.30
2022-12-25T22:40:22.088Z,28.33
2022-12-25T22:45:27.103Z,37.38
2022-12-25T22:50:30.514Z,32.60
2022-12-25T22:55:33.932Z,37.05
2022-12-25T23:00:45.941Z,34.72
2022-12-25T23:05:55.426Z,30.02
2022-12-25T23:11:02.987Z,29.73
2022-12-25T23:16:13.660Z,31.25
2022-12-25T23:21:35.896Z,28.52
2022-12-25T23:26:39.302Z,25.83
2022-12-25T23:31:44.456Z,29.75
2022-12-25T23:36:47.867Z,22.27
2022-12-25T23:41:51.243Z,23.55
2022-12-25T23:46:56.668Z,23.85
2022-12-25T23:52:00.134Z,18.35
2022-12-25T23:57:03.530Z,20.23
